createdAt,value
2023-01-29T00:00:23.999Z,-0.08
2023-01-29T00:02:53.216Z,-0.07
2023-01-29T00:05:28.022Z,-0.09
2023-01-29T00:07:57.197Z,-0.13
2023-01-29T00:10:26.115Z,-0.16
2023-01-29T00:12:54.698Z,-0.16
2023-01-29T00:15:23.508Z,-0.14
2023-01-29T00:17:52.173Z,-0.15
2023-01-29T00:20:20.875Z,-0.16
2023-01-29T00:22:50.164Z,-0.20
2023-01-29T00:25:18.638Z,-0.23
2023-01-29T00:27:47.579Z,-0.23
2023-01-29T00:30:19.956Z,-0.21
2023-01-29T00:32:48.709Z,-0.19
2023-01-29T00:35:17.679Z,-0.16
2023-01-29T00:37:46.264Z,-0.17
2023-01-29T00:40:15.426Z,-0.19
2023-01-29T00:43:04.349Z,-0.21
2023-01-29T00:45:34.679Z,-0.16
2023-01-29T00:48:03.949Z,-0.14
2023-01-29T00:50:32.637Z,-0.14
2023-01-29T00:53:01.551Z,-0.16
2023-01-29T00:55:30.103Z,-0.17
2023-01-29T00:57:58.687Z,-0.16
2023-01-29T01:00:27.674Z,-0.12
2023-01-29T01:03:08.557Z,-0.10
2023-01-29T01:05:39.607Z,-0.10
2023-01-29T01:08:28.038Z,-0.13
2023-01-29T01:11:04.630Z,-0.17
2023-01-29T01:13:34.577Z,-0.19
2023-01-29T01:16:16.373Z,-0.17
2023-01-29T01:18:45.108Z,-0.17
2023-01-29T01:21:13.588Z,-0.17
2023-01-29T01:23:42.275Z,-0.22
2023-01-29T01:26:11.373Z,-0.26
2023-01-29T01:28:39.953Z,-0.27
2023-01-29T01:31:12.573Z,-0.28
2023-01-29T01:33:41.345Z,-0.29
2023-01-29T01:36:10.140Z,-0.32
2023-01-29T01:38:45.461Z,-0.35
2023-01-29T01:41:15.768Z,-0.39
2023-01-29T01:44:04.404Z,-0.42
2023-01-29T01:46:37.102Z,-0.42
2023-01-29T01:49:18.539Z,-0.41
2023-01-29T01:51:51.058Z,-0.41
2023-01-29T01:54:29.163Z,-0.44
2023-01-29T01:57:09.341Z,-0.45
2023-01-29T01:59:39.279Z,-0.45
2023-01-29T02:02:26.605Z,-0.44
2023-01-29T02:05:13.901Z,-0.41
2023-01-29T02:08:05.397Z,-0.42
2023-01-29T02:10:38.487Z,-0.43
2023-01-29T02:13:07.201Z,-0.44
2023-01-29T02:15:36.369Z,-0.43
2023-01-29T02:18:05.263Z,-0.44
2023-01-29T02:20:33.946Z,-0.45
2023-01-29T02:23:23.621Z,-0.47
2023-01-29T02:26:10.741Z,-0.50
2023-01-29T02:29:19.678Z,-0.47
2023-01-29T02:31:58.135Z,-0.47
2023-01-29T02:34:52.791Z,-0.48
2023-01-29T02:37:26.071Z,-0.52
2023-01-29T02:40:02.095Z,-0.55
2023-01-29T02:42:36.353Z,-0.53
2023-01-29T02:45:14.042Z,-0.51
2023-01-29T02:47:49.280Z,-0.50
2023-01-29T02:50:20.984Z,-0.51
2023-01-29T02:53:07.236Z,-0.52
2023-01-29T02:55:38.070Z,-0.51
2023-01-29T02:58:41.879Z,-0.51
2023-01-29T03:01:23.922Z,-0.52
2023-01-29T03:03:56.928Z,-0.55
2023-01-29T03:06:38.045Z,-0.57
2023-01-29T03:09:23.519Z,-0.58
2023-01-29T03:11:53.536Z,-0.55
2023-01-29T03:14:54.279Z,-0.56
2023-01-29T03:17:26.223Z,-0.60
2023-01-29T03:19:55.024Z,-0.62
2023-01-29T03:22:24.021Z,-0.61
2023-01-29T03:25:18.718Z,-0.59
2023-01-29T03:28:13.051Z,-0.57
2023-01-29T03:31:06.719Z,-0.59
2023-01-29T03:33:54.498Z,-0.61
2023-01-29T03:36:38.409Z,-0.59
2023-01-29T03:39:07.906Z,-0.59
2023-01-29T03:41:42.915Z,-0.58
2023-01-29T03:44:18.434Z,-0.58
2023-01-29T03:47:22.956Z,-0.60
2023-01-29T03:50:00.959Z,-0.59
2023-01-29T03:52:46.653Z,-0.58
2023-01-29T03:55:23.322Z,-0.56
2023-01-29T03:57:55.176Z,-0.58
2023-01-29T04:00:34.920Z,-0.59
2023-01-29T04:03:27.058Z,-0.59
2023-01-29T04:06:05.713Z,-0.57
2023-01-29T04:08:56.887Z,-0.55
2023-01-29T04:11:27.223Z,-0.58
2023-01-29T04:13:56.615Z,-0.60
2023-01-29T04:16:29.330Z,-0.59
2023-01-29T04:19:16.518Z,-0.58
2023-01-29T04:21:45.405Z,-0.57
2023-01-29T04:24:15.521Z,-0.59
2023-01-29T04:27:00.185Z,-0.62
2023-01-29T04:29:54.573Z,-0.64
2023-01-29T04:32:58.523Z,-0.61
2023-01-29T04:35:32.213Z,-0.59
2023-01-29T04:38:25.447Z,-0.60
2023-01-29T04:40:54.028Z,-0.63
2023-01-29T04:43:41.461Z,-0.62
2023-01-29T04:46:17.920Z,-0.60
2023-01-29T04:48:46.405Z,-0.58
2023-01-29T04:51:25.634Z,-0.60
2023-01-29T04:54:07.018Z,-0.62
2023-01-29T04:57:02.856Z,-0.62
2023-01-29T04:59:33.712Z,-0.60
2023-01-29T05:02:02.821Z,-0.60
2023-01-29T05:04:32.796Z,-0.61
2023-01-29T05:07:05.263Z,-0.63
2023-01-29T05:09:33.757Z,-0.63
2023-01-29T05:12:02.537Z,-0.62
2023-01-29T05:14:31.335Z,-0.60
2023-01-29T05:17:00.210Z,-0.60
2023-01-29T05:19:29.207Z,-0.62
2023-01-29T05:21:58.088Z,-0.65
2023-01-29T05:24:26.836Z,-0.64
2023-01-29T05:27:17.615Z,-0.63
2023-01-29T05:29:47.199Z,-0.61
2023-01-29T05:32:16.089Z,-0.61
2023-01-29T05:34:44.725Z,-0.62
2023-01-29T05:37:13.352Z,-0.61
2023-01-29T05:39:41.932Z,-0.59
2023-01-29T05:42:10.429Z,-0.56
2023-01-29T05:44:39.199Z,-0.56
2023-01-29T05:47:07.687Z,-0.58
2023-01-29T05:49:38.628Z,-0.58
2023-01-29T05:52:07.510Z,-0.57
2023-01-29T05:54:36.195Z,-0.55
2023-01-29T05:57:04.879Z,-0.54
2023-01-29T05:59:33.778Z,-0.52
2023-01-29T06:02:02.839Z,-0.53
2023-01-29T06:04:31.761Z,-0.53
2023-01-29T06:07:03.826Z,-0.52
2023-01-29T06:09:33.125Z,-0.50
2023-01-29T06:12:03.444Z,-0.50
2023-01-29T06:14:32.452Z,-0.52
2023-01-29T06:17:01.841Z,-0.54
2023-01-29T06:19:30.733Z,-0.54
2023-01-29T06:21:59.524Z,-0.53
2023-01-29T06:24:28.225Z,-0.49
2023-01-29T06:26:56.892Z,-0.48
2023-01-29T06:29:25.572Z,-0.48
2023-01-29T06:31:54.161Z,-0.47
2023-01-29T06:34:25.949Z,-0.45
2023-01-29T06:36:54.605Z,-0.42
2023-01-29T06:39:23.490Z,-0.41
2023-01-29T06:41:52.277Z,-0.40
2023-01-29T06:44:21.585Z,-0.41
2023-01-29T06:46:50.168Z,-0.41
2023-01-29T06:49:18.848Z,-0.38
2023-01-29T06:51:48.866Z,-0.34
2023-01-29T06:54:17.674Z,-0.29
2023-01-29T06:56:46.747Z,-0.27
2023-01-29T06:59:15.537Z,-0.26
2023-01-29T07:01:44.683Z,-0.24
2023-01-29T07:04:13.629Z,-0.21
2023-01-29T07:06:42.453Z,-0.14
2023-01-29T07:09:14.112Z,-0.08
2023-01-29T07:11:42.592Z,-0.04
2023-01-29T07:14:11.240Z,0.02
2023-01-29T07:16:40.178Z,0.08
2023-01-29T07:19:10.036Z,0.14
2023-01-29T07:21:39.442Z,0.21
2023-01-29T07:24:08.567Z,0.28
2023-01-29T07:26:37.863Z,0.32
2023-01-29T07:29:07.784Z,0.32
2023-01-29T07:31:37.457Z,0.35
2023-01-29T07:34:06.143Z,0.39
2023-01-29T07:36:34.785Z,0.43
2023-01-29T07:39:03.636Z,0.47
2023-01-29T07:41:32.920Z,0.48
2023-01-29T07:44:01.603Z,0.49
2023-01-29T07:46:30.504Z,0.47
2023-01-29T07:49:01.667Z,0.49
2023-01-29T07:51:30.633Z,0.51
2023-01-29T07:53:59.112Z,0.56
2023-01-29T07:56:28.615Z,0.62
2023-01-29T07:58:57.048Z,0.65
2023-01-29T08:01:25.966Z,0.67
2023-01-29T08:03:54.672Z,0.71
2023-01-29T08:06:23.304Z,0.75
2023-01-29T08:08:56.351Z,0.81
2023-01-29T08:11:28.617Z,0.89
2023-01-29T08:14:00.271Z,0.93
2023-01-29T08:16:29.191Z,0.94
2023-01-29T08:18:58.461Z,0.92
2023-01-29T08:21:26.940Z,0.89
2023-01-29T08:23:55.559Z,0.89
2023-01-29T08:26:26.720Z,0.91
2023-01-29T08:28:55.249Z,0.92
2023-01-29T08:31:24.390Z,0.90
2023-01-29T08:33:56.026Z,0.83
2023-01-29T08:36:24.933Z,0.77
2023-01-29T08:38:53.574Z,0.79
2023-01-29T08:41:23.535Z,0.82
2023-01-29T08:43:52.203Z,0.87
2023-01-29T08:46:21.109Z,0.89
2023-01-29T08:48:49.853Z,0.85
2023-01-29T08:51:19.267Z,0.81
2023-01-29T08:53:50.591Z,0.76
2023-01-29T08:56:19.492Z,0.74
2023-01-29T08:58:47.992Z,0.77
2023-01-29T09:01:18.023Z,0.78
2023-01-29T09:03:47.295Z,0.80
2023-01-29T09:06:17.101Z,0.78
2023-01-29T09:08:50.805Z,0.76
2023-01-29T09:11:20.432Z,0.73
2023-01-29T09:13:49.310Z,0.73
2023-01-29T09:16:18.784Z,0.75
2023-01-29T09:18:47.596Z,0.76
2023-01-29T09:21:16.383Z,0.78
2023-01-29T09:23:45.289Z,0.77
2023-01-29T09:26:13.935Z,0.74
2023-01-29T09:28:43.378Z,0.70
2023-01-29T09:31:12.138Z,0.70
2023-01-29T09:33:40.742Z,0.70
2023-01-29T09:36:10.010Z,0.69
2023-01-29T09:38:38.615Z,0.68
2023-01-29T09:41:35.840Z,0.67
2023-01-29T09:44:11.009Z,0.61
2023-01-29T09:46:41.442Z,0.53
2023-01-29T09:49:33.248Z,0.51
2023-01-29T09:52:05.536Z,0.52
2023-01-29T09:54:51.702Z,0.57
2023-01-29T09:57:27.529Z,0.61
2023-01-29T09:59:55.981Z,0.61
2023-01-29T10:02:37.137Z,0.60
2023-01-29T10:05:13.462Z,0.56
2023-01-29T10:07:51.203Z,0.50
2023-01-29T10:10:39.759Z,0.50
2023-01-29T10:13:21.746Z,0.54
2023-01-29T10:15:59.386Z,0.58
2023-01-29T10:19:07.760Z,0.60
2023-01-29T10:22:05.323Z,0.61
2023-01-29T10:30:23.911Z,0.60
2023-01-29T10:46:47.288Z,0.66
2023-01-29T10:49:38.682Z,0.67
2023-01-29T10:52:13.100Z,0.69
2023-01-29T10:55:03.609Z,0.74
2023-01-29T10:57:32.418Z,0.75
2023-01-29T11:00:24.232Z,0.72
2023-01-29T11:02:53.015Z,0.68
2023-01-29T11:05:32.077Z,0.64
2023-01-29T11:08:16.066Z,0.66
2023-01-29T11:10:52.329Z,0.67
2023-01-29T11:13:22.359Z,0.74
2023-01-29T11:15:53.090Z,0.80
2023-01-29T11:18:22.801Z,0.80
2023-01-29T11:21:02.399Z,0.82
2023-01-29T11:23:33.915Z,0.85
2023-01-29T11:26:05.238Z,0.88
2023-01-29T11:28:37.310Z,0.89
2023-01-29T11:31:21.345Z,0.86
2023-01-29T11:34:02.647Z,0.80
2023-01-29T11:36:39.423Z,0.71
2023-01-29T11:39:15.467Z,0.61
2023-01-29T11:41:45.881Z,0.54
2023-01-29T11:44:21.345Z,0.54
2023-01-29T11:46:51.661Z,0.56
2023-01-29T11:49:34.890Z,0.59
2023-01-29T11:52:05.680Z,0.60
2023-01-29T11:54:58.381Z,0.58
2023-01-29T11:57:30.697Z,0.54
2023-01-29T12:00:25.538Z,0.51
2023-01-29T12:03:06.115Z,0.49
2023-01-29T12:05:35.826Z,0.49
2023-01-29T12:08:10.704Z,0.45
2023-01-29T12:10:41.671Z,0.44
2023-01-29T12:13:10.857Z,0.44
2023-01-29T12:15:41.310Z,0.41
2023-01-29T12:18:42.556Z,0.38
2023-01-29T12:21:11.526Z,0.33
2023-01-29T12:31:29.751Z,0.43
2023-01-29T12:34:31.955Z,0.44
2023-01-29T12:37:11.348Z,0.43
2023-01-29T12:39:42.152Z,0.42
2023-01-29T12:42:18.222Z,0.43
2023-01-29T12:44:49.158Z,0.44
2023-01-29T12:47:37.735Z,0.42
2023-01-29T12:50:28.229Z,0.40
2023-01-29T12:53:00.160Z,0.37
2023-01-29T12:55:33.742Z,0.32
2023-01-29T12:58:12.168Z,0.27
2023-01-29T13:00:44.574Z,0.22
2023-01-29T13:03:27.562Z,0.22
2023-01-29T13:06:17.484Z,0.23
2023-01-29T13:09:02.565Z,0.25
2023-01-29T13:12:19.524Z,0.26
2023-01-29T13:14:52.249Z,0.25
2023-01-29T13:17:36.936Z,0.20
2023-01-29T13:20:18.806Z,0.18
2023-01-29T13:22:49.129Z,0.17
2023-01-29T13:25:18.814Z,0.20
2023-01-29T13:27:48.143Z,0.21
2023-01-29T13:30:35.927Z,0.19
2023-01-29T13:33:11.709Z,0.14
2023-01-29T13:36:02.001Z,0.13
2023-01-29T13:38:33.432Z,0.10
2023-01-29T13:41:04.098Z,0.07
2023-01-29T13:43:41.963Z,0.08
2023-01-29T13:46:14.504Z,0.11
2023-01-29T13:48:48.511Z,0.13
2023-01-29T13:51:21.011Z,0.13
2023-01-29T14:00:22.455Z,0.05
2023-01-29T14:03:00.272Z,0.00
2023-01-29T14:05:41.535Z,0.04
2023-01-29T14:08:10.326Z,0.08
2023-01-29T14:10:41.972Z,0.12
2023-01-29T14:13:19.820Z,0.14
2023-01-29T14:16:04.844Z,0.14
2023-01-29T14:19:01.950Z,0.11
2023-01-29T14:21:36.222Z,0.06
2023-01-29T14:24:22.979Z,0.02
2023-01-29T14:26:57.078Z,0.01
2023-01-29T14:29:35.094Z,0.01
2023-01-29T14:32:25.208Z,-0.01
2023-01-29T14:35:01.846Z,-0.02
2023-01-29T14:37:35.360Z,-0.04
2023-01-29T14:40:19.970Z,-0.07
2023-01-29T14:43:09.482Z,-0.09
2023-01-29T14:45:40.189Z,-0.08
2023-01-29T14:48:11.826Z,-0.07
2023-01-29T14:50:50.691Z,-0.06
2023-01-29T14:53:23.697Z,-0.05
2023-01-29T14:55:59.719Z,-0.06
2023-01-29T14:58:53.201Z,-0.10
2023-01-29T15:01:35.970Z,-0.17
2023-01-29T15:04:18.357Z,-0.20
2023-01-29T15:06:48.799Z,-0.19
2023-01-29T15:09:55.628Z,-0.16
2023-01-29T15:12:32.274Z,-0.16
2023-01-29T15:15:41.815Z,-0.18
2023-01-29T15:18:14.228Z,-0.21
2023-01-29T15:20:45.423Z,-0.26
2023-01-29T15:23:35.708Z,-0.29
2023-01-29T15:26:09.177Z,-0.27
2023-01-29T15:28:38.612Z,-0.25
2023-01-29T15:31:12.256Z,-0.23
2023-01-29T15:33:43.662Z,-0.21
2023-01-29T15:36:29.681Z,-0.23
2023-01-29T15:39:29.331Z,-0.26
2023-01-29T15:42:31.573Z,-0.28
2023-01-29T15:45:00.731Z,-0.28
2023-01-29T15:47:31.635Z,-0.26
2023-01-29T15:50:00.870Z,-0.23
2023-01-29T15:52:33.264Z,-0.23
2023-01-29T15:55:04.128Z,-0.24
2023-01-29T15:57:41.008Z,-0.28
2023-01-29T16:00:38.252Z,-0.31
2023-01-29T16:03:15.853Z,-0.29
2023-01-29T16:05:44.404Z,-0.28
2023-01-29T16:08:16.194Z,-0.28
2023-01-29T16:10:45.751Z,-0.29
2023-01-29T16:13:27.091Z,-0.33
2023-01-29T16:16:00.800Z,-0.39
2023-01-29T16:18:47.707Z,-0.42
2023-01-29T16:21:23.528Z,-0.43
2023-01-29T16:24:06.420Z,-0.43
2023-01-29T16:26:39.047Z,-0.42
2023-01-29T16:29:09.955Z,-0.43
2023-01-29T16:31:39.581Z,-0.46
2023-01-29T16:34:31.477Z,-0.51
2023-01-29T16:37:01.495Z,-0.54
2023-01-29T16:39:36.446Z,-0.53
2023-01-29T16:42:18.869Z,-0.49
2023-01-29T16:44:50.800Z,-0.49
2023-01-29T16:47:56.260Z,-0.48
2023-01-29T16:50:36.107Z,-0.50
2023-01-29T16:53:18.034Z,-0.53
2023-01-29T16:55:47.281Z,-0.57
2023-01-29T16:58:25.725Z,-0.58
2023-01-29T17:01:04.754Z,-0.57
2023-01-29T17:03:33.756Z,-0.54
2023-01-29T17:06:25.256Z,-0.55
2023-01-29T17:08:54.033Z,-0.57
2023-01-29T17:11:33.771Z,-0.59
2023-01-29T17:14:02.465Z,-0.59
2023-01-29T17:16:33.537Z,-0.54
2023-01-29T17:19:03.805Z,-0.52
2023-01-29T17:21:35.034Z,-0.50
2023-01-29T17:24:03.772Z,-0.49
2023-01-29T17:26:32.626Z,-0.52
2023-01-29T17:29:02.358Z,-0.59
2023-01-29T17:31:31.409Z,-0.63
2023-01-29T17:34:00.588Z,-0.61
2023-01-29T17:36:31.497Z,-0.61
2023-01-29T17:39:02.316Z,-0.58
2023-01-29T17:41:31.725Z,-0.56
2023-01-29T17:44:00.512Z,-0.56
2023-01-29T17:46:30.224Z,-0.60
2023-01-29T17:48:59.215Z,-0.65
2023-01-29T17:51:28.308Z,-0.67
2023-01-29T17:53:57.928Z,-0.67
2023-01-29T17:56:29.198Z,-0.66
2023-01-29T17:58:58.012Z,-0.63
2023-01-29T18:01:26.752Z,-0.62
2023-01-29T18:03:57.390Z,-0.64
2023-01-29T18:06:28.746Z,-0.67
2023-01-29T18:08:57.520Z,-0.72
2023-01-29T18:11:27.417Z,-0.76
2023-01-29T18:13:56.638Z,-0.76
2023-01-29T18:16:27.107Z,-0.74
2023-01-29T18:18:57.702Z,-0.73
2023-01-29T18:21:28.433Z,-0.73
2023-01-29T18:23:57.090Z,-0.75
2023-01-29T18:26:26.841Z,-0.78
2023-01-29T18:28:55.998Z,-0.81
2023-01-29T18:31:25.973Z,-0.85
2023-01-29T18:33:55.452Z,-0.88
2023-01-29T18:36:24.043Z,-0.90
2023-01-29T18:38:53.825Z,-0.89
2023-01-29T18:41:23.424Z,-0.90
2023-01-29T18:43:53.181Z,-0.93
2023-01-29T18:46:23.581Z,-0.97
2023-01-29T18:48:55.312Z,-1.01
2023-01-29T18:51:24.922Z,-1.01
2023-01-29T18:53:54.733Z,-1.04
2023-01-29T18:56:23.836Z,-1.08
2023-01-29T18:58:58.364Z,-1.09
2023-01-29T19:01:27.810Z,-1.09
2023-01-29T19:03:57.123Z,-1.09
2023-01-29T19:06:25.947Z,-1.05
2023-01-29T19:08:55.755Z,-1.06
2023-01-29T19:11:24.954Z,-1.10
2023-01-29T19:13:55.321Z,-1.13
2023-01-29T19:16:26.217Z,-1.17
2023-01-29T19:18:56.439Z,-1.21
2023-01-29T19:21:26.812Z,-1.29
2023-01-29T19:23:58.521Z,-1.36
2023-01-29T19:26:27.384Z,-1.37
2023-01-29T19:28:57.192Z,-1.38
2023-01-29T19:31:28.211Z,-1.36
2023-01-29T19:33:59.633Z,-1.35
2023-01-29T19:36:28.921Z,-1.36
2023-01-29T19:38:58.728Z,-1.40
2023-01-29T19:41:28.124Z,-1.44
2023-01-29T19:43:57.534Z,-1.49
2023-01-29T19:46:26.520Z,-1.56
2023-01-29T19:48:57.360Z,-1.62
2023-01-29T19:51:28.245Z,-1.66
2023-01-29T19:53:58.618Z,-1.63
2023-01-29T19:56:29.664Z,-1.58
2023-01-29T19:58:58.167Z,-1.54
2023-01-29T20:01:30.558Z,-1.52
2023-01-29T20:03:59.877Z,-1.51
2023-01-29T20:06:31.408Z,-1.59
2023-01-29T20:09:03.634Z,-1.65
2023-01-29T20:11:34.998Z,-1.68
2023-01-29T20:14:04.600Z,-1.71
2023-01-29T20:16:34.250Z,-1.74
2023-01-29T20:19:14.030Z,-1.71
2023-01-29T20:21:46.840Z,-1.65
2023-01-29T20:24:16.231Z,-1.60
2023-01-29T20:26:53.150Z,-1.58
2023-01-29T20:29:22.304Z,-1.60
2023-01-29T20:31:52.314Z,-1.62
2023-01-29T20:34:22.241Z,-1.66
2023-01-29T20:36:51.124Z,-1.70
2023-01-29T20:39:22.406Z,-1.73
2023-01-29T20:41:53.943Z,-1.73
2023-01-29T20:44:23.675Z,-1.71
2023-01-29T20:46:52.339Z,-1.67
2023-01-29T20:49:22.455Z,-1.61
2023-01-29T20:51:52.357Z,-1.58
2023-01-29T20:54:23.698Z,-1.58
2023-01-29T20:56:55.292Z,-1.57
2023-01-29T20:59:26.646Z,-1.60
2023-01-29T21:01:56.612Z,-1.63
2023-01-29T21:04:31.798Z,-1.67
2023-01-29T21:07:01.872Z,-1.69
2023-01-29T21:09:30.880Z,-1.69
2023-01-29T21:12:00.094Z,-1.66
2023-01-29T21:14:36.180Z,-1.63
2023-01-29T21:17:05.327Z,-1.62
2023-01-29T21:19:34.005Z,-1.64
2023-01-29T21:22:02.924Z,-1.64
2023-01-29T21:24:32.405Z,-1.65
2023-01-29T21:27:02.519Z,-1.68
2023-01-29T21:29:31.266Z,-1.71
2023-01-29T21:32:00.047Z,-1.73
2023-01-29T21:34:29.086Z,-1.73
2023-01-29T21:36:57.981Z,-1.71
2023-01-29T21:39:26.969Z,-1.67
2023-01-29T21:42:14.258Z,-1.66
2023-01-29T21:44:43.714Z,-1.66
2023-01-29T21:47:15.356Z,-1.68
2023-01-29T21:49:45.493Z,-1.72
2023-01-29T21:52:15.202Z,-1.76
2023-01-29T21:54:49.244Z,-1.80
2023-01-29T21:57:18.079Z,-1.84
2023-01-29T21:59:46.990Z,-1.84
2023-01-29T22:02:23.084Z,-1.81
2023-01-29T22:05:08.748Z,-1.78
2023-01-29T22:07:46.206Z,-1.77
2023-01-29T22:10:15.767Z,-1.80
2023-01-29T22:12:46.278Z,-1.81
2023-01-29T22:15:26.118Z,-1.80
2023-01-29T22:17:55.895Z,-1.83
2023-01-29T22:20:30.303Z,-1.90
2023-01-29T22:23:00.777Z,-1.93
2023-01-29T22:25:30.510Z,-1.91
2023-01-29T22:27:59.140Z,-1.88
2023-01-29T22:30:27.987Z,-1.83
2023-01-29T22:32:57.330Z,-1.80
2023-01-29T22:35:26.114Z,-1.80
2023-01-29T22:37:55.114Z,-1.82
2023-01-29T22:40:23.692Z,-1.88
2023-01-29T22:42:52.324Z,-1.96
2023-01-29T22:45:21.272Z,-2.02
2023-01-29T22:47:52.000Z,-2.06
2023-01-29T22:50:20.893Z,-2.07
2023-01-29T22:52:54.125Z,-2.06
2023-01-29T22:55:24.202Z,-2.01
2023-01-29T22:57:53.813Z,-1.99
2023-01-29T23:00:22.608Z,-2.01
2023-01-29T23:02:51.092Z,-2.02
2023-01-29T23:05:20.068Z,-2.04
2023-01-29T23:07:50.709Z,-2.08
2023-01-29T23:10:19.510Z,-2.10
2023-01-29T23:12:48.382Z,-2.11
2023-01-29T23:15:17.380Z,-2.11
2023-01-29T23:17:46.164Z,-2.12
2023-01-29T23:20:15.414Z,-2.10
2023-01-29T23:22:44.562Z,-2.07
2023-01-29T23:25:13.650Z,-2.04
2023-01-29T23:27:42.339Z,-2.05
2023-01-29T23:30:12.269Z,-2.05
2023-01-29T23:32:40.831Z,-2.09
2023-01-29T23:35:09.928Z,-2.10
2023-01-29T23:37:38.307Z,-2.14
2023-01-29T23:40:07.919Z,-2.17
2023-01-29T23:42:36.604Z,-2.15
2023-01-29T23:45:06.003Z,-2.11
2023-01-29T23:47:34.691Z,-2.11
2023-01-29T23:50:07.901Z,-2.10
2023-01-29T23:52:37.494Z,-2.10
2023-01-29T23:55:07.300Z,-2.15
2023-01-29T23:57:36.189Z,-2.16
